sensor_id;sensor_type;location;lat;lon;timestamp;P1;durP1;ratioP1;P2;durP2;ratioP2
45548;SDS011;31270;48.328;10.096;2023-05-10T00:02:16;3.17;;;2.88;;
45548;SDS011;31270;48.328;10.096;2023-05-10T00:04:42;3.88;;;3.45;;
45548;SDS011;31270;48.328;10.096;2023-05-10T00:07:07;3.70;;;3.40;;
45548;SDS011;31270;48.328;10.096;2023-05-10T00:09:33;3.70;;;3.30;;
45548;SDS011;31270;48.328;10.096;2023-05-10T00:11:58;3.83;;;3.42;;
45548;SDS011;31270;48.328;10.096;2023-05-10T00:14:25;3.45;;;3.03;;
45548;SDS011;31270;48.328;10.096;2023-05-10T00:16:51;3.33;;;3.00;;
45548;SDS011;31270;48.328;10.096;2023-05-10T00:19:17;3.38;;;2.75;;
45548;SDS011;31270;48.328;10.096;2023-05-10T00:21:43;3.33;;;2.90;;
45548;SDS011;31270;48.328;10.096;2023-05-10T00:24:09;3.13;;;2.60;;
45548;SDS011;31270;48.328;10.096;2023-05-10T00:26:34;3.00;;;2.55;;
45548;SDS011;31270;48.328;10.096;2023-05-10T00:29:00;3.10;;;2.80;;
45548;SDS011;31270;48.328;10.096;2023-05-10T00:31:25;3.27;;;2.97;;
45548;SDS011;31270;48.328;10.096;2023-05-10T00:33:51;3.20;;;2.90;;
45548;SDS011;31270;48.328;10.096;2023-05-10T00:36:17;4.13;;;3.07;;
45548;SDS011;31270;48.328;10.096;2023-05-10T00:38:43;2.80;;;2.60;;
45548;SDS011;31270;48.328;10.096;2023-05-10T00:41:10;3.13;;;2.40;;
45548;SDS011;31270;48.328;10.096;2023-05-10T00:43:36;3.00;;;2.70;;
45548;SDS011;31270;48.328;10.096;2023-05-10T00:46:03;3.00;;;2.80;;
45548;SDS011;31270;48.328;10.096;2023-05-10T00:48:30;2.65;;;2.45;;
45548;SDS011;31270;48.328;10.096;2023-05-10T00:50:56;2.58;;;2.20;;
45548;SDS011;31270;48.328;10.096;2023-05-10T00:53:23;4.70;;;2.55;;
45548;SDS011;31270;48.328;10.096;2023-05-10T00:55:49;2.57;;;2.33;;
45548;SDS011;31270;48.328;10.096;2023-05-10T00:58:16;3.20;;;2.73;;
45548;SDS011;31270;48.328;10.096;2023-05-10T01:00:42;2.58;;;2.38;;
45548;SDS011;31270;48.328;10.096;2023-05-10T01:03:09;2.47;;;2.27;;
45548;SDS011;31270;48.328;10.096;2023-05-10T01:05:37;3.30;;;2.50;;
45548;SDS011;31270;48.328;10.096;2023-05-10T01:08:03;3.63;;;2.30;;
45548;SDS011;31270;48.328;10.096;2023-05-10T01:10:30;3.30;;;2.30;;
45548;SDS011;31270;48.328;10.096;2023-05-10T01:12:56;2.40;;;2.20;;
45548;SDS011;31270;48.328;10.096;2023-05-10T01:15:24;2.43;;;2.23;;
45548;SDS011;31270;48.328;10.096;2023-05-10T01:17:50;2.47;;;2.27;;
45548;SDS011;31270;48.328;10.096;2023-05-10T01:20:17;1.90;;;1.80;;
45548;SDS011;31270;48.328;10.096;2023-05-10T01:28:17;3.57;;;1.97;;
45548;SDS011;31270;48.328;10.096;2023-05-10T01:30:50;1.80;;;1.70;;
45548;SDS011;31270;48.328;10.096;2023-05-10T01:33:55;1.80;;;1.70;;
45548;SDS011;31270;48.328;10.096;2023-05-10T01:39:21;1.67;;;1.20;;
45548;SDS011;31270;48.328;10.096;2023-05-10T01:44:46;1.43;;;1.33;;
45548;SDS011;31270;48.328;10.096;2023-05-10T01:47:24;1.00;;;1.00;;
45548;SDS011;31270;48.328;10.096;2023-05-10T01:49:56;1.37;;;1.20;;
45548;SDS011;31270;48.328;10.096;2023-05-10T01:52:30;2.67;;;1.37;;
45548;SDS011;31270;48.328;10.096;2023-05-10T01:55:04;2.40;;;1.30;;
45548;SDS011;31270;48.328;10.096;2023-05-10T01:57:32;1.20;;;1.10;;
45548;SDS011;31270;48.328;10.096;2023-05-10T02:00:01;3.43;;;1.20;;
45548;SDS011;31270;48.328;10.096;2023-05-10T02:02:35;1.20;;;1.10;;
45548;SDS011;31270;48.328;10.096;2023-05-10T02:05:04;1.87;;;1.00;;
45548;SDS011;31270;48.328;10.096;2023-05-10T02:07:32;1.90;;;0.90;;
45548;SDS011;31270;48.328;10.096;2023-05-10T02:10:02;1.40;;;1.20;;
45548;SDS011;31270;48.328;10.096;2023-05-10T02:12:30;1.30;;;1.20;;
45548;SDS011;31270;48.328;10.096;2023-05-10T02:14:59;1.53;;;1.10;;
45548;SDS011;31270;48.328;10.096;2023-05-10T02:17:30;1.13;;;1.10;;
45548;SDS011;31270;48.328;10.096;2023-05-10T02:19:58;1.00;;;0.80;;
45548;SDS011;31270;48.328;10.096;2023-05-10T02:22:26;2.40;;;1.00;;
45548;SDS011;31270;48.328;10.096;2023-05-10T02:24:57;0.93;;;0.80;;
45548;SDS011;31270;48.328;10.096;2023-05-10T02:27:25;1.13;;;1.03;;
45548;SDS011;31270;48.328;10.096;2023-05-10T02:29:52;1.03;;;0.93;;
45548;SDS011;31270;48.328;10.096;2023-05-10T02:32:19;2.30;;;0.97;;
45548;SDS011;31270;48.328;10.096;2023-05-10T02:34:47;1.10;;;1.00;;
45548;SDS011;31270;48.328;10.096;2023-05-10T02:37:16;1.07;;;1.00;;
45548;SDS011;31270;48.328;10.096;2023-05-10T02:39:46;1.05;;;0.95;;
45548;SDS011;31270;48.328;10.096;2023-05-10T02:42:15;0.90;;;0.90;;
45548;SDS011;31270;48.328;10.096;2023-05-10T02:44:48;0.90;;;0.90;;
45548;SDS011;31270;48.328;10.096;2023-05-10T02:47:17;0.90;;;0.77;;
45548;SDS011;31270;48.328;10.096;2023-05-10T02:49:44;1.50;;;0.90;;
45548;SDS011;31270;48.328;10.096;2023-05-10T02:52:11;1.57;;;0.80;;
45548;SDS011;31270;48.328;10.096;2023-05-10T02:54:44;0.70;;;0.70;;
45548;SDS011;31270;48.328;10.096;2023-05-10T02:57:15;0.90;;;0.90;;
45548;SDS011;31270;48.328;10.096;2023-05-10T02:59:44;3.47;;;0.63;;
45548;SDS011;31270;48.328;10.096;2023-05-10T03:02:12;1.47;;;0.80;;
45548;SDS011;31270;48.328;10.096;2023-05-10T03:04:38;2.57;;;0.80;;
45548;SDS011;31270;48.328;10.096;2023-05-10T03:07:04;0.60;;;0.60;;
45548;SDS011;31270;48.328;10.096;2023-05-10T03:09:30;1.00;;;0.60;;
45548;SDS011;31270;48.328;10.096;2023-05-10T03:12:00;0.60;;;0.60;;
45548;SDS011;31270;48.328;10.096;2023-05-10T03:14:51;0.60;;;0.53;;
45548;SDS011;31270;48.328;10.096;2023-05-10T03:19:56;2.50;;;0.60;;
45548;SDS011;31270;48.328;10.096;2023-05-10T03:22:27;1.50;;;0.50;;
45548;SDS011;31270;48.328;10.096;2023-05-10T03:24:56;0.70;;;0.70;;
45548;SDS011;31270;48.328;10.096;2023-05-10T03:27:23;0.70;;;0.70;;
45548;SDS011;31270;48.328;10.096;2023-05-10T03:29:50;0.57;;;0.57;;
45548;SDS011;31270;48.328;10.096;2023-05-10T03:32:17;3.90;;;1.00;;
45548;SDS011;31270;48.328;10.096;2023-05-10T03:34:43;1.17;;;0.73;;
45548;SDS011;31270;48.328;10.096;2023-05-10T03:37:09;1.50;;;0.80;;
45548;SDS011;31270;48.328;10.096;2023-05-10T03:39:35;0.90;;;0.90;;
45548;SDS011;31270;48.328;10.096;2023-05-10T03:42:01;0.80;;;0.77;;
45548;SDS011;31270;48.328;10.096;2023-05-10T03:44:27;3.00;;;1.50;;
45548;SDS011;31270;48.328;10.096;2023-05-10T03:46:53;1.97;;;1.13;;
45548;SDS011;31270;48.328;10.096;2023-05-10T03:49:19;0.90;;;0.90;;
45548;SDS011;31270;48.328;10.096;2023-05-10T03:51:45;2.20;;;0.70;;
45548;SDS011;31270;48.328;10.096;2023-05-10T03:54:11;1.00;;;1.00;;
45548;SDS011;31270;48.328;10.096;2023-05-10T03:56:37;0.60;;;0.60;;
45548;SDS011;31270;48.328;10.096;2023-05-10T03:59:02;0.90;;;0.90;;
45548;SDS011;31270;48.328;10.096;2023-05-10T04:01:35;0.93;;;0.90;;
45548;SDS011;31270;48.328;10.096;2023-05-10T04:04:01;0.90;;;0.90;;
45548;SDS011;31270;48.328;10.096;2023-05-10T04:06:27;2.30;;;0.80;;
45548;SDS011;31270;48.328;10.096;2023-05-10T04:08:53;1.60;;;1.17;;
45548;SDS011;31270;48.328;10.096;2023-05-10T04:11:18;0.97;;;0.97;;
45548;SDS011;31270;48.328;10.096;2023-05-10T04:13:47;0.90;;;0.90;;
45548;SDS011;31270;48.328;10.096;2023-05-10T04:16:13;0.80;;;0.80;;
45548;SDS011;31270;48.328;10.096;2023-05-10T04:18:39;3.43;;;1.10;;
45548;SDS011;31270;48.328;10.096;2023-05-10T04:21:10;2.23;;;1.00;;
45548;SDS011;31270;48.328;10.096;2023-05-10T04:23:39;3.40;;;1.30;;
45548;SDS011;31270;48.328;10.096;2023-05-10T04:26:06;2.63;;;1.03;;
45548;SDS011;31270;48.328;10.096;2023-05-10T04:28:31;1.17;;;1.03;;
45548;SDS011;31270;48.328;10.096;2023-05-10T04:31:01;2.37;;;1.30;;
45548;SDS011;31270;48.328;10.096;2023-05-10T04:33:28;1.40;;;1.20;;
45548;SDS011;31270;48.328;10.096;2023-05-10T04:35:54;1.97;;;1.53;;
45548;SDS011;31270;48.328;10.096;2023-05-10T04:38:21;1.30;;;1.20;;
45548;SDS011;31270;48.328;10.096;2023-05-10T04:40:47;1.33;;;1.10;;
45548;SDS011;31270;48.328;10.096;2023-05-10T04:43:12;1.60;;;1.00;;
45548;SDS011;31270;48.328;10.096;2023-05-10T04:45:38;4.40;;;1.07;;
45548;SDS011;31270;48.328;10.096;2023-05-10T04:48:04;1.20;;;1.10;;
45548;SDS011;31270;48.328;10.096;2023-05-10T04:50:33;2.00;;;1.00;;
45548;SDS011;31270;48.328;10.096;2023-05-10T04:52:58;1.27;;;1.17;;
45548;SDS011;31270;48.328;10.096;2023-05-10T04:55:24;1.20;;;1.10;;
45548;SDS011;31270;48.328;10.096;2023-05-10T04:57:52;0.90;;;0.90;;
45548;SDS011;31270;48.328;10.096;2023-05-10T05:00:18;4.30;;;1.20;;
45548;SDS011;31270;48.328;10.096;2023-05-10T05:02:45;4.10;;;1.10;;
45548;SDS011;31270;48.328;10.096;2023-05-10T05:05:11;1.40;;;1.20;;
45548;SDS011;31270;48.328;10.096;2023-05-10T05:07:37;1.70;;;1.17;;
45548;SDS011;31270;48.328;10.096;2023-05-10T05:10:04;1.97;;;1.47;;
45548;SDS011;31270;48.328;10.096;2023-05-10T05:12:31;3.30;;;1.00;;
45548;SDS011;31270;48.328;10.096;2023-05-10T05:14:59;3.67;;;1.10;;
45548;SDS011;31270;48.328;10.096;2023-05-10T05:17:25;1.10;;;1.00;;
45548;SDS011;31270;48.328;10.096;2023-05-10T05:19:52;1.73;;;1.20;;
45548;SDS011;31270;48.328;10.096;2023-05-10T05:22:17;1.03;;;1.00;;
45548;SDS011;31270;48.328;10.096;2023-05-10T05:24:44;1.50;;;1.20;;
45548;SDS011;31270;48.328;10.096;2023-05-10T05:27:10;1.63;;;1.20;;
45548;SDS011;31270;48.328;10.096;2023-05-10T05:29:35;2.73;;;1.40;;
45548;SDS011;31270;48.328;10.096;2023-05-10T05:32:01;3.13;;;1.57;;
45548;SDS011;31270;48.328;10.096;2023-05-10T05:34:26;1.30;;;1.20;;
45548;SDS011;31270;48.328;10.096;2023-05-10T05:36:53;1.20;;;1.10;;
45548;SDS011;31270;48.328;10.096;2023-05-10T05:39:19;1.20;;;1.10;;
45548;SDS011;31270;48.328;10.096;2023-05-10T05:41:45;1.60;;;1.17;;
45548;SDS011;31270;48.328;10.096;2023-05-10T05:44:11;1.43;;;1.33;;
45548;SDS011;31270;48.328;10.096;2023-05-10T05:46:37;2.53;;;1.30;;
45548;SDS011;31270;48.328;10.096;2023-05-10T05:49:03;1.33;;;1.20;;
45548;SDS011;31270;48.328;10.096;2023-05-10T05:51:31;2.00;;;1.10;;
45548;SDS011;31270;48.328;10.096;2023-05-10T05:53:57;3.67;;;1.30;;
45548;SDS011;31270;48.328;10.096;2023-05-10T05:56:22;1.37;;;1.20;;
45548;SDS011;31270;48.328;10.096;2023-05-10T05:58:52;2.23;;;1.07;;
45548;SDS011;31270;48.328;10.096;2023-05-10T06:01:18;3.27;;;1.30;;
45548;SDS011;31270;48.328;10.096;2023-05-10T06:03:44;1.40;;;1.30;;
45548;SDS011;31270;48.328;10.096;2023-05-10T06:06:09;3.13;;;1.33;;
45548;SDS011;31270;48.328;10.096;2023-05-10T06:08:35;1.80;;;1.37;;
45548;SDS011;31270;48.328;10.096;2023-05-10T06:11:01;2.70;;;1.50;;
45548;SDS011;31270;48.328;10.096;2023-05-10T06:13:26;1.60;;;1.50;;
45548;SDS011;31270;48.328;10.096;2023-05-10T06:15:57;1.83;;;1.50;;
45548;SDS011;31270;48.328;10.096;2023-05-10T06:18:23;2.50;;;1.70;;
45548;SDS011;31270;48.328;10.096;2023-05-10T06:20:50;2.67;;;1.30;;
45548;SDS011;31270;48.328;10.096;2023-05-10T06:23:16;3.20;;;1.70;;
45548;SDS011;31270;48.328;10.096;2023-05-10T06:25:42;2.20;;;1.57;;
45548;SDS011;31270;48.328;10.096;2023-05-10T06:28:09;1.70;;;1.60;;
45548;SDS011;31270;48.328;10.096;2023-05-10T06:30:35;1.75;;;1.40;;
45548;SDS011;31270;48.328;10.096;2023-05-10T06:33:01;2.37;;;1.20;;
45548;SDS011;31270;48.328;10.096;2023-05-10T06:35:27;1.67;;;1.37;;
45548;SDS011;31270;48.328;10.096;2023-05-10T06:37:54;4.88;;;1.48;;
45548;SDS011;31270;48.328;10.096;2023-05-10T06:40:20;1.40;;;1.30;;
45548;SDS011;31270;48.328;10.096;2023-05-10T06:42:46;1.20;;;1.10;;
45548;SDS011;31270;48.328;10.096;2023-05-10T06:45:13;3.67;;;1.58;;
45548;SDS011;31270;48.328;10.096;2023-05-10T06:47:40;1.70;;;1.60;;
45548;SDS011;31270;48.328;10.096;2023-05-10T06:50:09;1.60;;;1.50;;
45548;SDS011;31270;48.328;10.096;2023-05-10T06:52:37;1.80;;;1.70;;
45548;SDS011;31270;48.328;10.096;2023-05-10T06:55:03;1.67;;;1.50;;
45548;SDS011;31270;48.328;10.096;2023-05-10T06:57:29;1.60;;;1.50;;
45548;SDS011;31270;48.328;10.096;2023-05-10T06:59:56;1.60;;;1.50;;
45548;SDS011;31270;48.328;10.096;2023-05-10T07:02:22;2.73;;;1.50;;
45548;SDS011;31270;48.328;10.096;2023-05-10T07:04:48;1.30;;;1.20;;
45548;SDS011;31270;48.328;10.096;2023-05-10T07:07:14;3.15;;;1.40;;
45548;SDS011;31270;48.328;10.096;2023-05-10T07:09:40;2.20;;;1.63;;
45548;SDS011;31270;48.328;10.096;2023-05-10T07:12:07;3.70;;;1.70;;
45548;SDS011;31270;48.328;10.096;2023-05-10T07:14:32;3.40;;;1.80;;
45548;SDS011;31270;48.328;10.096;2023-05-10T07:16:58;3.38;;;1.33;;
45548;SDS011;31270;48.328;10.096;2023-05-10T07:19:24;5.03;;;1.73;;
45548;SDS011;31270;48.328;10.096;2023-05-10T07:21:49;2.30;;;1.40;;
45548;SDS011;31270;48.328;10.096;2023-05-10T07:24:15;1.48;;;1.25;;
45548;SDS011;31270;48.328;10.096;2023-05-10T07:26:41;1.88;;;1.50;;
45548;SDS011;31270;48.328;10.096;2023-05-10T07:29:07;1.90;;;1.70;;
45548;SDS011;31270;48.328;10.096;2023-05-10T07:31:33;2.00;;;1.50;;
45548;SDS011;31270;48.328;10.096;2023-05-10T07:33:58;1.48;;;1.38;;
45548;SDS011;31270;48.328;10.096;2023-05-10T07:36:25;2.30;;;1.60;;
45548;SDS011;31270;48.328;10.096;2023-05-10T07:38:51;2.75;;;1.50;;
45548;SDS011;31270;48.328;10.096;2023-05-10T07:41:17;2.65;;;1.42;;
45548;SDS011;31270;48.328;10.096;2023-05-10T07:43:42;1.50;;;1.40;;
45548;SDS011;31270;48.328;10.096;2023-05-10T07:46:08;1.73;;;1.63;;
45548;SDS011;31270;48.328;10.096;2023-05-10T07:48:36;1.80;;;1.70;;
45548;SDS011;31270;48.328;10.096;2023-05-10T07:51:02;3.50;;;1.63;;
45548;SDS011;31270;48.328;10.096;2023-05-10T07:53:28;2.05;;;1.85;;
45548;SDS011;31270;48.328;10.096;2023-05-10T07:55:54;1.40;;;1.35;;
45548;SDS011;31270;48.328;10.096;2023-05-10T07:58:24;2.13;;;1.50;;
45548;SDS011;31270;48.328;10.096;2023-05-10T08:00:50;2.53;;;1.65;;
45548;SDS011;31270;48.328;10.096;2023-05-10T08:03:16;1.77;;;1.67;;
45548;SDS011;31270;48.328;10.096;2023-05-10T08:05:42;1.98;;;1.48;;
45548;SDS011;31270;48.328;10.096;2023-05-10T08:08:08;2.45;;;1.48;;
45548;SDS011;31270;48.328;10.096;2023-05-10T08:10:34;1.67;;;1.58;;
45548;SDS011;31270;48.328;10.096;2023-05-10T08:13:00;4.20;;;1.60;;
45548;SDS011;31270;48.328;10.096;2023-05-10T08:15:26;1.88;;;1.60;;
45548;SDS011;31270;48.328;10.096;2023-05-10T08:17:51;3.53;;;1.42;;
45548;SDS011;31270;48.328;10.096;2023-05-10T08:20:17;1.65;;;1.55;;
45548;SDS011;31270;48.328;10.096;2023-05-10T08:22:47;1.77;;;1.50;;
45548;SDS011;31270;48.328;10.096;2023-05-10T08:25:13;1.70;;;1.60;;
45548;SDS011;31270;48.328;10.096;2023-05-10T08:27:39;1.38;;;1.27;;
45548;SDS011;31270;48.328;10.096;2023-05-10T08:30:06;1.67;;;1.42;;
45548;SDS011;31270;48.328;10.096;2023-05-10T08:32:32;1.90;;;1.58;;
45548;SDS011;31270;48.328;10.096;2023-05-10T08:34:57;1.50;;;1.40;;
45548;SDS011;31270;48.328;10.096;2023-05-10T08:37:23;2.83;;;1.60;;
45548;SDS011;31270;48.328;10.096;2023-05-10T08:39:49;2.38;;;1.63;;
45548;SDS011;31270;48.328;10.096;2023-05-10T08:42:16;3.45;;;1.63;;
45548;SDS011;31270;48.328;10.096;2023-05-10T08:44:48;1.50;;;1.40;;
45548;SDS011;31270;48.328;10.096;2023-05-10T08:47:15;2.00;;;1.60;;
45548;SDS011;31270;48.328;10.096;2023-05-10T08:49:43;3.72;;;1.77;;
45548;SDS011;31270;48.328;10.096;2023-05-10T08:52:13;1.23;;;1.20;;
45548;SDS011;31270;48.328;10.096;2023-05-10T08:54:41;1.60;;;1.23;;
45548;SDS011;31270;48.328;10.096;2023-05-10T08:57:08;1.42;;;1.33;;
45548;SDS011;31270;48.328;10.096;2023-05-10T08:59:34;2.20;;;1.23;;
45548;SDS011;31270;48.328;10.096;2023-05-10T09:02:01;1.90;;;1.48;;
45548;SDS011;31270;48.328;10.096;2023-05-10T09:04:29;2.42;;;1.20;;
45548;SDS011;31270;48.328;10.096;2023-05-10T09:06:56;1.05;;;1.05;;
45548;SDS011;31270;48.328;10.096;2023-05-10T09:09:23;1.52;;;1.10;;
45548;SDS011;31270;48.328;10.096;2023-05-10T09:11:50;2.45;;;1.35;;
45548;SDS011;31270;48.328;10.096;2023-05-10T09:14:17;1.48;;;1.35;;
45548;SDS011;31270;48.328;10.096;2023-05-10T09:16:43;1.40;;;1.30;;
45548;SDS011;31270;48.328;10.096;2023-05-10T09:19:10;1.55;;;1.45;;
45548;SDS011;31270;48.328;10.096;2023-05-10T09:21:36;1.90;;;1.45;;
45548;SDS011;31270;48.328;10.096;2023-05-10T09:24:05;3.40;;;1.35;;
45548;SDS011;31270;48.328;10.096;2023-05-10T09:26:33;1.60;;;1.50;;
45548;SDS011;31270;48.328;10.096;2023-05-10T09:29:00;2.83;;;1.35;;
45548;SDS011;31270;48.328;10.096;2023-05-10T09:31:43;1.40;;;1.10;;
45548;SDS011;31270;48.328;10.096;2023-05-10T09:34:15;1.63;;;1.40;;
45548;SDS011;31270;48.328;10.096;2023-05-10T09:36:53;1.27;;;1.17;;
45548;SDS011;31270;48.328;10.096;2023-05-10T09:39:27;0.95;;;0.90;;
45548;SDS011;31270;48.328;10.096;2023-05-10T09:41:55;1.10;;;1.00;;
45548;SDS011;31270;48.328;10.096;2023-05-10T09:44:22;1.10;;;1.00;;
45548;SDS011;31270;48.328;10.096;2023-05-10T09:46:48;5.30;;;0.93;;
45548;SDS011;31270;48.328;10.096;2023-05-10T09:49:15;3.30;;;1.05;;
45548;SDS011;31270;48.328;10.096;2023-05-10T09:51:41;0.80;;;0.80;;
45548;SDS011;31270;48.328;10.096;2023-05-10T09:54:11;1.63;;;1.00;;
45548;SDS011;31270;48.328;10.096;2023-05-10T09:56:42;1.30;;;1.15;;
45548;SDS011;31270;48.328;10.096;2023-05-10T09:59:09;1.00;;;0.90;;
45548;SDS011;31270;48.328;10.096;2023-05-10T10:01:37;1.05;;;0.80;;
45548;SDS011;31270;48.328;10.096;2023-05-10T10:04:07;1.17;;;1.00;;
45548;SDS011;31270;48.328;10.096;2023-05-10T10:06:38;2.42;;;1.00;;
45548;SDS011;31270;48.328;10.096;2023-05-10T10:09:05;1.25;;;1.00;;
45548;SDS011;31270;48.328;10.096;2023-05-10T10:11:34;1.10;;;0.98;;
45548;SDS011;31270;48.328;10.096;2023-05-10T10:14:01;0.98;;;0.80;;
45548;SDS011;31270;48.328;10.096;2023-05-10T10:16:29;1.55;;;0.80;;
45548;SDS011;31270;48.328;10.096;2023-05-10T10:18:55;1.50;;;0.88;;
45548;SDS011;31270;48.328;10.096;2023-05-10T10:21:22;0.88;;;0.70;;
45548;SDS011;31270;48.328;10.096;2023-05-10T10:23:49;0.80;;;0.80;;
45548;SDS011;31270;48.328;10.096;2023-05-10T10:26:15;2.47;;;0.80;;
45548;SDS011;31270;48.328;10.096;2023-05-10T10:31:43;2.17;;;0.80;;
45548;SDS011;31270;48.328;10.096;2023-05-10T10:34:25;1.58;;;0.70;;
45548;SDS011;31270;48.328;10.096;2023-05-10T10:36:53;0.98;;;0.70;;
45548;SDS011;31270;48.328;10.096;2023-05-10T10:39:21;1.10;;;0.93;;
45548;SDS011;31270;48.328;10.096;2023-05-10T10:41:54;1.95;;;0.70;;
45548;SDS011;31270;48.328;10.096;2023-05-10T10:47:02;3.40;;;1.45;;
45548;SDS011;31270;48.328;10.096;2023-05-10T10:49:45;1.15;;;0.77;;
45548;SDS011;31270;48.328;10.096;2023-05-10T11:00:25;1.00;;;0.90;;
45548;SDS011;31270;48.328;10.096;2023-05-10T11:03:15;1.17;;;0.65;;
45548;SDS011;31270;48.328;10.096;2023-05-10T11:05:49;0.63;;;0.63;;
45548;SDS011;31270;48.328;10.096;2023-05-10T11:08:27;0.95;;;0.70;;
45548;SDS011;31270;48.328;10.096;2023-05-10T11:13:30;1.60;;;0.70;;
45548;SDS011;31270;48.328;10.096;2023-05-10T11:15:56;2.75;;;0.98;;
45548;SDS011;31270;48.328;10.096;2023-05-10T11:18:25;3.28;;;0.73;;
45548;SDS011;31270;48.328;10.096;2023-05-10T11:20:55;1.20;;;0.75;;
45548;SDS011;31270;48.328;10.096;2023-05-10T11:23:23;2.00;;;0.98;;
45548;SDS011;31270;48.328;10.096;2023-05-10T11:25:49;2.42;;;1.10;;
45548;SDS011;31270;48.328;10.096;2023-05-10T11:28:18;1.27;;;1.17;;
45548;SDS011;31270;48.328;10.096;2023-05-10T11:30:44;1.38;;;1.10;;
45548;SDS011;31270;48.328;10.096;2023-05-10T11:33:14;1.63;;;1.10;;
45548;SDS011;31270;48.328;10.096;2023-05-10T11:35:45;3.45;;;1.10;;
45548;SDS011;31270;48.328;10.096;2023-05-10T11:38:12;1.25;;;0.90;;
45548;SDS011;31270;48.328;10.096;2023-05-10T11:40:39;2.25;;;1.13;;
45548;SDS011;31270;48.328;10.096;2023-05-10T11:43:05;1.13;;;1.02;;
45548;SDS011;31270;48.328;10.096;2023-05-10T11:45:33;1.10;;;1.00;;
45548;SDS011;31270;48.328;10.096;2023-05-10T11:47:59;1.90;;;0.90;;
45548;SDS011;31270;48.328;10.096;2023-05-10T11:50:26;3.60;;;1.05;;
45548;SDS011;31270;48.328;10.096;2023-05-10T11:52:53;1.77;;;0.90;;
45548;SDS011;31270;48.328;10.096;2023-05-10T11:55:20;0.98;;;0.88;;
45548;SDS011;31270;48.328;10.096;2023-05-10T11:57:46;1.17;;;0.90;;
45548;SDS011;31270;48.328;10.096;2023-05-10T12:00:12;1.73;;;1.17;;
45548;SDS011;31270;48.328;10.096;2023-05-10T12:02:39;0.60;;;0.60;;
45548;SDS011;31270;48.328;10.096;2023-05-10T12:05:05;2.35;;;0.90;;
45548;SDS011;31270;48.328;10.096;2023-05-10T12:07:32;0.93;;;0.65;;
45548;SDS011;31270;48.328;10.096;2023-05-10T12:12:36;0.98;;;0.90;;
45548;SDS011;31270;48.328;10.096;2023-05-10T12:15:26;3.90;;;1.30;;
45548;SDS011;31270;48.328;10.096;2023-05-10T12:17:53;1.13;;;1.02;;
45548;SDS011;31270;48.328;10.096;2023-05-10T12:22:53;2.30;;;1.15;;
45548;SDS011;31270;48.328;10.096;2023-05-10T12:25:22;2.25;;;1.10;;
45548;SDS011;31270;48.328;10.096;2023-05-10T12:27:52;1.42;;;1.25;;
45548;SDS011;31270;48.328;10.096;2023-05-10T12:30:29;1.73;;;1.63;;
45548;SDS011;31270;48.328;10.096;2023-05-10T12:32:59;2.50;;;1.25;;
45548;SDS011;31270;48.328;10.096;2023-05-10T12:35:47;4.13;;;1.10;;
45548;SDS011;31270;48.328;10.096;2023-05-10T12:38:26;1.30;;;1.20;;
45548;SDS011;31270;48.328;10.096;2023-05-10T12:41:00;1.25;;;0.95;;
45548;SDS011;31270;48.328;10.096;2023-05-10T12:43:28;2.53;;;0.98;;
45548;SDS011;31270;48.328;10.096;2023-05-10T12:45:54;0.95;;;0.80;;
45548;SDS011;31270;48.328;10.096;2023-05-10T12:48:20;0.93;;;0.90;;
45548;SDS011;31270;48.328;10.096;2023-05-10T12:50:46;3.35;;;1.02;;
45548;SDS011;31270;48.328;10.096;2023-05-10T12:53:15;0.95;;;0.90;;
45548;SDS011;31270;48.328;10.096;2023-05-10T12:55:42;1.10;;;1.00;;
45548;SDS011;31270;48.328;10.096;2023-05-10T12:58:07;0.80;;;0.80;;
45548;SDS011;31270;48.328;10.096;2023-05-10T13:00:33;1.95;;;1.30;;
45548;SDS011;31270;48.328;10.096;2023-05-10T13:02:59;1.15;;;1.02;;
45548;SDS011;31270;48.328;10.096;2023-05-10T13:05:24;2.33;;;1.25;;
45548;SDS011;31270;48.328;10.096;2023-05-10T13:07:50;1.30;;;1.20;;
45548;SDS011;31270;48.328;10.096;2023-05-10T13:10:16;1.60;;;1.30;;
45548;SDS011;31270;48.328;10.096;2023-05-10T13:12:41;2.08;;;1.30;;
45548;SDS011;31270;48.328;10.096;2023-05-10T13:15:08;1.63;;;1.33;;
45548;SDS011;31270;48.328;10.096;2023-05-10T13:17:34;3.42;;;1.20;;
45548;SDS011;31270;48.328;10.096;2023-05-10T13:19:59;1.50;;;1.40;;
45548;SDS011;31270;48.328;10.096;2023-05-10T13:22:25;2.22;;;1.40;;
45548;SDS011;31270;48.328;10.096;2023-05-10T13:24:51;1.88;;;1.50;;
45548;SDS011;31270;48.328;10.096;2023-05-10T13:27:17;1.75;;;1.55;;
45548;SDS011;31270;48.328;10.096;2023-05-10T13:29:42;1.33;;;1.23;;
45548;SDS011;31270;48.328;10.096;2023-05-10T13:32:08;1.30;;;1.20;;
45548;SDS011;31270;48.328;10.096;2023-05-10T13:34:34;1.40;;;1.30;;
45548;SDS011;31270;48.328;10.096;2023-05-10T13:37:01;1.98;;;1.60;;
45548;SDS011;31270;48.328;10.096;2023-05-10T13:39:26;2.63;;;1.48;;
45548;SDS011;31270;48.328;10.096;2023-05-10T13:41:52;1.83;;;1.45;;
45548;SDS011;31270;48.328;10.096;2023-05-10T13:44:19;2.70;;;1.60;;
45548;SDS011;31270;48.328;10.096;2023-05-10T13:46:45;4.30;;;1.48;;
45548;SDS011;31270;48.328;10.096;2023-05-10T13:49:11;1.42;;;1.10;;
45548;SDS011;31270;48.328;10.096;2023-05-10T13:51:36;3.83;;;1.52;;
45548;SDS011;31270;48.328;10.096;2023-05-10T13:54:02;1.63;;;1.35;;
45548;SDS011;31270;48.328;10.096;2023-05-10T13:56:28;2.90;;;1.50;;
45548;SDS011;31270;48.328;10.096;2023-05-10T13:58:54;1.63;;;1.50;;
45548;SDS011;31270;48.328;10.096;2023-05-10T14:01:20;4.30;;;1.50;;
45548;SDS011;31270;48.328;10.096;2023-05-10T14:03:46;2.20;;;1.30;;
45548;SDS011;31270;48.328;10.096;2023-05-10T14:06:12;3.37;;;1.57;;
45548;SDS011;31270;48.328;10.096;2023-05-10T14:08:37;4.77;;;1.57;;
45548;SDS011;31270;48.328;10.096;2023-05-10T14:11:03;2.33;;;1.50;;
45548;SDS011;31270;48.328;10.096;2023-05-10T14:13:29;4.70;;;2.70;;
45548;SDS011;31270;48.328;10.096;2023-05-10T14:15:55;3.90;;;1.80;;
45548;SDS011;31270;48.328;10.096;2023-05-10T14:18:20;4.40;;;1.70;;
45548;SDS011;31270;48.328;10.096;2023-05-10T14:20:46;2.97;;;1.53;;
45548;SDS011;31270;48.328;10.096;2023-05-10T14:23:12;1.77;;;1.63;;
45548;SDS011;31270;48.328;10.096;2023-05-10T14:25:40;2.43;;;1.90;;
45548;SDS011;31270;48.328;10.096;2023-05-10T14:28:05;3.03;;;1.77;;
45548;SDS011;31270;48.328;10.096;2023-05-10T14:30:31;5.40;;;2.13;;
45548;SDS011;31270;48.328;10.096;2023-05-10T14:32:59;2.42;;;1.80;;
45548;SDS011;31270;48.328;10.096;2023-05-10T14:35:26;2.63;;;1.70;;
45548;SDS011;31270;48.328;10.096;2023-05-10T14:37:52;3.38;;;1.88;;
45548;SDS011;31270;48.328;10.096;2023-05-10T14:40:18;4.57;;;1.80;;
45548;SDS011;31270;48.328;10.096;2023-05-10T14:42:43;3.38;;;1.92;;
45548;SDS011;31270;48.328;10.096;2023-05-10T14:45:09;1.37;;;1.27;;
45548;SDS011;31270;48.328;10.096;2023-05-10T14:47:36;2.53;;;1.80;;
45548;SDS011;31270;48.328;10.096;2023-05-10T14:50:01;2.28;;;1.98;;
45548;SDS011;31270;48.328;10.096;2023-05-10T14:52:27;2.08;;;1.80;;
45548;SDS011;31270;48.328;10.096;2023-05-10T14:54:54;2.13;;;1.90;;
45548;SDS011;31270;48.328;10.096;2023-05-10T14:57:19;2.95;;;1.80;;
45548;SDS011;31270;48.328;10.096;2023-05-10T14:59:45;2.00;;;1.80;;
45548;SDS011;31270;48.328;10.096;2023-05-10T15:02:10;3.78;;;1.88;;
45548;SDS011;31270;48.328;10.096;2023-05-10T15:04:36;1.77;;;1.63;;
45548;SDS011;31270;48.328;10.096;2023-05-10T15:07:02;2.57;;;2.00;;
45548;SDS011;31270;48.328;10.096;2023-05-10T15:09:28;3.42;;;1.65;;
45548;SDS011;31270;48.328;10.096;2023-05-10T15:11:54;2.63;;;2.10;;